sensor_id;sensor_type;location;lat;lon;timestamp;temperature;humidity
12632;DHT22;6381;45.748;12.106;2023-02-12T00:02:19;5.10;55.70
12632;DHT22;6381;45.748;12.106;2023-02-12T00:04:48;5.20;54.50
12632;DHT22;6381;45.748;12.106;2023-02-12T00:07:18;5.00;54.80
12632;DHT22;6381;45.748;12.106;2023-02-12T00:09:47;5.00;55.00
12632;DHT22;6381;45.748;12.106;2023-02-12T00:12:16;5.10;54.90
12632;DHT22;6381;45.748;12.106;2023-02-12T00:14:46;5.10;55.10
12632;DHT22;6381;45.748;12.106;2023-02-12T00:17:17;5.10;55.00
12632;DHT22;6381;45.748;12.106;2023-02-12T00:19:46;5.10;56.00
12632;DHT22;6381;45.748;12.106;2023-02-12T00:22:16;5.10;55.80
12632;DHT22;6381;45.748;12.106;2023-02-12T00:24:45;5.00;55.90
12632;DHT22;6381;45.748;12.106;2023-02-12T00:27:14;4.70;55.90
12632;DHT22;6381;45.748;12.106;2023-02-12T00:29:44;4.80;56.10
12632;DHT22;6381;45.748;12.106;2023-02-12T00:32:13;4.70;56.00
12632;DHT22;6381;45.748;12.106;2023-02-12T00:34:47;4.80;56.80
12632;DHT22;6381;45.748;12.106;2023-02-12T00:37:17;4.70;59.30
12632;DHT22;6381;45.748;12.106;2023-02-12T00:39:46;4.80;55.50
12632;DHT22;6381;45.748;12.106;2023-02-12T00:42:16;4.90;55.10
12632;DHT22;6381;45.748;12.106;2023-02-12T00:44:45;5.00;54.90
12632;DHT22;6381;45.748;12.106;2023-02-12T00:47:14;4.90;55.30
12632;DHT22;6381;45.748;12.106;2023-02-12T00:49:44;5.40;54.90
12632;DHT22;6381;45.748;12.106;2023-02-12T00:52:15;5.40;54.80
12632;DHT22;6381;45.748;12.106;2023-02-12T00:54:45;4.70;54.80
12632;DHT22;6381;45.748;12.106;2023-02-12T00:57:14;4.50;54.90
12632;DHT22;6381;45.748;12.106;2023-02-12T00:59:43;4.60;54.50
12632;DHT22;6381;45.748;12.106;2023-02-12T01:02:13;4.60;54.80
12632;DHT22;6381;45.748;12.106;2023-02-12T01:04:42;4.70;55.20
12632;DHT22;6381;45.748;12.106;2023-02-12T01:07:12;4.70;54.90
12632;DHT22;6381;45.748;12.106;2023-02-12T01:09:42;4.60;54.50
12632;DHT22;6381;45.748;12.106;2023-02-12T01:12:12;4.70;54.80
12632;DHT22;6381;45.748;12.106;2023-02-12T01:14:41;4.80;54.70
12632;DHT22;6381;45.748;12.106;2023-02-12T01:17:11;5.20;54.20
12632;DHT22;6381;45.748;12.106;2023-02-12T01:19:43;5.10;54.00
12632;DHT22;6381;45.748;12.106;2023-02-12T01:22:13;5.20;54.50
12632;DHT22;6381;45.748;12.106;2023-02-12T01:24:44;5.30;54.70
12632;DHT22;6381;45.748;12.106;2023-02-12T01:27:14;5.20;54.20
12632;DHT22;6381;45.748;12.106;2023-02-12T01:29:44;5.00;54.10
12632;DHT22;6381;45.748;12.106;2023-02-12T01:32:13;4.60;55.10
12632;DHT22;6381;45.748;12.106;2023-02-12T01:34:42;4.60;55.60
12632;DHT22;6381;45.748;12.106;2023-02-12T01:37:12;4.80;56.10
12632;DHT22;6381;45.748;12.106;2023-02-12T01:39:43;4.80;55.80
12632;DHT22;6381;45.748;12.106;2023-02-12T01:42:14;4.90;57.10
12632;DHT22;6381;45.748;12.106;2023-02-12T01:47:55;4.40;56.40
12632;DHT22;6381;45.748;12.106;2023-02-12T01:50:28;4.10;57.50
12632;DHT22;6381;45.748;12.106;2023-02-12T01:52:58;3.90;57.20
12632;DHT22;6381;45.748;12.106;2023-02-12T01:55:29;4.30;57.30
12632;DHT22;6381;45.748;12.106;2023-02-12T01:57:59;4.60;57.30
12632;DHT22;6381;45.748;12.106;2023-02-12T02:00:28;4.60;56.30
12632;DHT22;6381;45.748;12.106;2023-02-12T02:02:59;4.80;56.10
12632;DHT22;6381;45.748;12.106;2023-02-12T02:05:34;4.70;56.30
12632;DHT22;6381;45.748;12.106;2023-02-12T02:08:08;4.50;57.00
12632;DHT22;6381;45.748;12.106;2023-02-12T02:10:39;4.20;57.80
12632;DHT22;6381;45.748;12.106;2023-02-12T02:13:09;3.80;61.20
12632;DHT22;6381;45.748;12.106;2023-02-12T02:15:59;3.80;57.60
12632;DHT22;6381;45.748;12.106;2023-02-12T02:18:35;4.30;57.40
12632;DHT22;6381;45.748;12.106;2023-02-12T02:24:36;4.50;56.70
12632;DHT22;6381;45.748;12.106;2023-02-12T02:27:36;4.40;57.90
12632;DHT22;6381;45.748;12.106;2023-02-12T02:30:32;4.50;57.60
12632;DHT22;6381;45.748;12.106;2023-02-12T02:33:21;4.30;57.30
12632;DHT22;6381;45.748;12.106;2023-02-12T02:36:02;3.80;57.90
12632;DHT22;6381;45.748;12.106;2023-02-12T02:38:37;3.80;58.90
12632;DHT22;6381;45.748;12.106;2023-02-12T02:41:14;4.30;59.10
12632;DHT22;6381;45.748;12.106;2023-02-12T02:43:48;4.40;58.80
12632;DHT22;6381;45.748;12.106;2023-02-12T02:46:23;4.30;58.50
12632;DHT22;6381;45.748;12.106;2023-02-12T02:48:57;3.80;59.00
12632;DHT22;6381;45.748;12.106;2023-02-12T02:51:30;4.10;59.10
12632;DHT22;6381;45.748;12.106;2023-02-12T02:54:05;4.00;58.80
12632;DHT22;6381;45.748;12.106;2023-02-12T02:56:38;4.20;58.70
12632;DHT22;6381;45.748;12.106;2023-02-12T02:59:11;4.50;58.70
12632;DHT22;6381;45.748;12.106;2023-02-12T03:01:47;4.20;58.10
12632;DHT22;6381;45.748;12.106;2023-02-12T03:04:22;4.40;58.20
12632;DHT22;6381;45.748;12.106;2023-02-12T03:06:56;4.30;57.70
12632;DHT22;6381;45.748;12.106;2023-02-12T03:09:30;4.00;57.90
12632;DHT22;6381;45.748;12.106;2023-02-12T03:12:03;4.00;57.90
12632;DHT22;6381;45.748;12.106;2023-02-12T03:14:37;3.90;57.80
12632;DHT22;6381;45.748;12.106;2023-02-12T03:17:13;3.40;58.70
12632;DHT22;6381;45.748;12.106;2023-02-12T03:19:46;3.70;59.50
12632;DHT22;6381;45.748;12.106;2023-02-12T03:22:21;3.80;58.90
12632;DHT22;6381;45.748;12.106;2023-02-12T03:24:56;3.60;58.50
12632;DHT22;6381;45.748;12.106;2023-02-12T03:27:29;3.40;59.30
12632;DHT22;6381;45.748;12.106;2023-02-12T03:30:00;3.20;60.20
12632;DHT22;6381;45.748;12.106;2023-02-12T03:32:37;3.20;60.20
12632;DHT22;6381;45.748;12.106;2023-02-12T03:35:13;3.20;60.20
12632;DHT22;6381;45.748;12.106;2023-02-12T03:37:53;2.90;60.50
12632;DHT22;6381;45.748;12.106;2023-02-12T03:40:28;3.00;60.40
12632;DHT22;6381;45.748;12.106;2023-02-12T03:43:01;3.20;59.90
12632;DHT22;6381;45.748;12.106;2023-02-12T03:45:44;3.40;60.10
12632;DHT22;6381;45.748;12.106;2023-02-12T03:48:21;3.20;60.30
12632;DHT22;6381;45.748;12.106;2023-02-12T03:50:55;3.60;60.30
12632;DHT22;6381;45.748;12.106;2023-02-12T03:53:28;3.50;60.30
12632;DHT22;6381;45.748;12.106;2023-02-12T03:56:02;3.70;60.20
12632;DHT22;6381;45.748;12.106;2023-02-12T03:58:34;3.70;59.80
12632;DHT22;6381;45.748;12.106;2023-02-12T04:01:05;3.60;60.00
12632;DHT22;6381;45.748;12.106;2023-02-12T04:03:36;3.20;59.90
12632;DHT22;6381;45.748;12.106;2023-02-12T04:06:20;3.70;60.30
12632;DHT22;6381;45.748;12.106;2023-02-12T04:08:50;3.30;60.10
12632;DHT22;6381;45.748;12.106;2023-02-12T04:11:25;3.20;60.10
12632;DHT22;6381;45.748;12.106;2023-02-12T04:14:11;3.60;60.30
12632;DHT22;6381;45.748;12.106;2023-02-12T04:16:46;3.50;60.50
12632;DHT22;6381;45.748;12.106;2023-02-12T04:19:26;3.40;60.60
12632;DHT22;6381;45.748;12.106;2023-02-12T04:22:14;3.40;60.50
12632;DHT22;6381;45.748;12.106;2023-02-12T04:24:53;3.70;59.60
12632;DHT22;6381;45.748;12.106;2023-02-12T04:27:29;3.80;59.60
12632;DHT22;6381;45.748;12.106;2023-02-12T04:30:07;2.90;60.20
12632;DHT22;6381;45.748;12.106;2023-02-12T04:32:43;3.20;60.70
12632;DHT22;6381;45.748;12.106;2023-02-12T04:35:21;3.60;60.60
12632;DHT22;6381;45.748;12.106;2023-02-12T04:37:56;3.50;60.80
12632;DHT22;6381;45.748;12.106;2023-02-12T04:40:27;3.20;61.20
12632;DHT22;6381;45.748;12.106;2023-02-12T04:42:56;3.10;61.60
12632;DHT22;6381;45.748;12.106;2023-02-12T04:45:28;3.00;62.00
12632;DHT22;6381;45.748;12.106;2023-02-12T04:47:58;3.00;62.10
12632;DHT22;6381;45.748;12.106;2023-02-12T04:50:37;2.80;62.00
12632;DHT22;6381;45.748;12.106;2023-02-12T04:53:08;3.00;62.20
12632;DHT22;6381;45.748;12.106;2023-02-12T04:55:37;3.10;61.60
12632;DHT22;6381;45.748;12.106;2023-02-12T04:58:07;3.40;61.70
12632;DHT22;6381;45.748;12.106;2023-02-12T05:00:36;3.40;61.20
12632;DHT22;6381;45.748;12.106;2023-02-12T05:03:06;3.40;60.90
12632;DHT22;6381;45.748;12.106;2023-02-12T05:05:36;3.40;61.50
12632;DHT22;6381;45.748;12.106;2023-02-12T05:08:06;3.80;61.70
12632;DHT22;6381;45.748;12.106;2023-02-12T05:10:35;3.90;61.50
12632;DHT22;6381;45.748;12.106;2023-02-12T05:13:05;4.00;61.20
12632;DHT22;6381;45.748;12.106;2023-02-12T05:15:34;4.00;60.50
12632;DHT22;6381;45.748;12.106;2023-02-12T05:18:06;3.80;60.10
12632;DHT22;6381;45.748;12.106;2023-02-12T05:20:37;4.30;59.80
12632;DHT22;6381;45.748;12.106;2023-02-12T05:23:06;4.50;59.20
12632;DHT22;6381;45.748;12.106;2023-02-12T05:25:36;4.30;58.30
12632;DHT22;6381;45.748;12.106;2023-02-12T05:28:05;4.30;58.20
12632;DHT22;6381;45.748;12.106;2023-02-12T05:30:34;4.30;58.60
12632;DHT22;6381;45.748;12.106;2023-02-12T05:33:04;4.30;58.40
12632;DHT22;6381;45.748;12.106;2023-02-12T05:35:34;4.20;58.20
12632;DHT22;6381;45.748;12.106;2023-02-12T05:38:04;4.30;58.20
12632;DHT22;6381;45.748;12.106;2023-02-12T05:40:34;4.40;57.80
12632;DHT22;6381;45.748;12.106;2023-02-12T05:43:03;4.40;57.90
12632;DHT22;6381;45.748;12.106;2023-02-12T05:45:33;4.40;57.80
12632;DHT22;6381;45.748;12.106;2023-02-12T05:48:02;4.30;57.70
12632;DHT22;6381;45.748;12.106;2023-02-12T05:50:32;4.50;57.80
12632;DHT22;6381;45.748;12.106;2023-02-12T05:53:08;4.40;57.20
12632;DHT22;6381;45.748;12.106;2023-02-12T05:55:38;4.10;57.30
12632;DHT22;6381;45.748;12.106;2023-02-12T05:58:07;3.80;57.70
12632;DHT22;6381;45.748;12.106;2023-02-12T06:00:36;3.70;58.30
12632;DHT22;6381;45.748;12.106;2023-02-12T06:03:06;3.80;58.10
12632;DHT22;6381;45.748;12.106;2023-02-12T06:05:35;3.80;58.70
12632;DHT22;6381;45.748;12.106;2023-02-12T06:08:04;3.90;58.40
12632;DHT22;6381;45.748;12.106;2023-02-12T06:10:36;4.00;58.10
12632;DHT22;6381;45.748;12.106;2023-02-12T06:13:05;4.00;65.20
12632;DHT22;6381;45.748;12.106;2023-02-12T06:15:35;3.50;59.30
12632;DHT22;6381;45.748;12.106;2023-02-12T06:18:05;3.70;59.90
12632;DHT22;6381;45.748;12.106;2023-02-12T06:20:36;4.10;59.30
12632;DHT22;6381;45.748;12.106;2023-02-12T06:23:06;4.00;58.80
12632;DHT22;6381;45.748;12.106;2023-02-12T06:25:37;3.80;59.60
12632;DHT22;6381;45.748;12.106;2023-02-12T06:28:06;3.80;59.60
12632;DHT22;6381;45.748;12.106;2023-02-12T06:30:36;3.90;59.90
12632;DHT22;6381;45.748;12.106;2023-02-12T06:33:05;4.20;59.80
12632;DHT22;6381;45.748;12.106;2023-02-12T06:35:35;3.90;59.80
12632;DHT22;6381;45.748;12.106;2023-02-12T06:38:05;3.80;63.20
12632;DHT22;6381;45.748;12.106;2023-02-12T06:40:35;4.00;60.40
12632;DHT22;6381;45.748;12.106;2023-02-12T06:43:05;3.70;60.00
12632;DHT22;6381;45.748;12.106;2023-02-12T06:45:34;3.70;60.50
12632;DHT22;6381;45.748;12.106;2023-02-12T06:48:04;3.60;60.20
12632;DHT22;6381;45.748;12.106;2023-02-12T06:50:34;3.60;60.30
12632;DHT22;6381;45.748;12.106;2023-02-12T06:53:03;4.00;64.90
12632;DHT22;6381;45.748;12.106;2023-02-12T06:55:33;3.50;60.60
12632;DHT22;6381;45.748;12.106;2023-02-12T06:58:04;3.40;60.70
12632;DHT22;6381;45.748;12.106;2023-02-12T07:00:34;3.40;60.90
12632;DHT22;6381;45.748;12.106;2023-02-12T07:03:04;3.40;61.10
12632;DHT22;6381;45.748;12.106;2023-02-12T07:05:33;3.50;63.80
12632;DHT22;6381;45.748;12.106;2023-02-12T07:08:04;4.10;61.50
12632;DHT22;6381;45.748;12.106;2023-02-12T07:10:34;4.30;60.10
12632;DHT22;6381;45.748;12.106;2023-02-12T07:13:05;4.40;60.80
12632;DHT22;6381;45.748;12.106;2023-02-12T07:15:38;4.60;63.80
12632;DHT22;6381;45.748;12.106;2023-02-12T07:18:08;4.50;65.00
12632;DHT22;6381;45.748;12.106;2023-02-12T07:20:37;4.70;58.90
12632;DHT22;6381;45.748;12.106;2023-02-12T07:23:09;5.00;58.50
12632;DHT22;6381;45.748;12.106;2023-02-12T07:25:39;5.00;57.90
12632;DHT22;6381;45.748;12.106;2023-02-12T07:28:09;5.30;57.10
12632;DHT22;6381;45.748;12.106;2023-02-12T07:30:39;5.40;56.20
12632;DHT22;6381;45.748;12.106;2023-02-12T07:33:09;5.40;55.90
12632;DHT22;6381;45.748;12.106;2023-02-12T07:35:38;5.10;55.40
12632;DHT22;6381;45.748;12.106;2023-02-12T07:38:07;5.10;55.10
12632;DHT22;6381;45.748;12.106;2023-02-12T07:40:37;5.30;55.30
12632;DHT22;6381;45.748;12.106;2023-02-12T07:43:06;5.20;55.40
12632;DHT22;6381;45.748;12.106;2023-02-12T07:45:41;5.30;55.90
12632;DHT22;6381;45.748;12.106;2023-02-12T07:48:10;5.50;56.10
12632;DHT22;6381;45.748;12.106;2023-02-12T07:50:40;5.60;55.80
12632;DHT22;6381;45.748;12.106;2023-02-12T07:53:10;5.40;55.80
12632;DHT22;6381;45.748;12.106;2023-02-12T07:55:39;5.50;55.90
12632;DHT22;6381;45.748;12.106;2023-02-12T07:58:08;5.70;56.10
12632;DHT22;6381;45.748;12.106;2023-02-12T08:00:39;5.90;55.60
12632;DHT22;6381;45.748;12.106;2023-02-12T08:03:09;6.30;55.20
12632;DHT22;6381;45.748;12.106;2023-02-12T08:05:38;6.30;54.60
12632;DHT22;6381;45.748;12.106;2023-02-12T08:08:08;6.40;54.90
12632;DHT22;6381;45.748;12.106;2023-02-12T08:10:37;6.50;54.60
12632;DHT22;6381;45.748;12.106;2023-02-12T08:13:06;6.90;54.20
12632;DHT22;6381;45.748;12.106;2023-02-12T08:15:36;7.30;55.10
12632;DHT22;6381;45.748;12.106;2023-02-12T08:18:07;7.30;54.50
12632;DHT22;6381;45.748;12.106;2023-02-12T08:20:36;7.50;54.20
12632;DHT22;6381;45.748;12.106;2023-02-12T08:23:05;7.50;54.00
12632;DHT22;6381;45.748;12.106;2023-02-12T08:25:35;7.60;52.80
12632;DHT22;6381;45.748;12.106;2023-02-12T08:28:05;7.90;53.00
12632;DHT22;6381;45.748;12.106;2023-02-12T08:30:35;8.00;53.50
12632;DHT22;6381;45.748;12.106;2023-02-12T08:33:06;7.90;51.80
12632;DHT22;6381;45.748;12.106;2023-02-12T08:35:36;8.20;51.50
12632;DHT22;6381;45.748;12.106;2023-02-12T08:38:05;8.20;50.60
12632;DHT22;6381;45.748;12.106;2023-02-12T08:40:34;8.30;49.40
12632;DHT22;6381;45.748;12.106;2023-02-12T08:43:04;8.30;48.80
12632;DHT22;6381;45.748;12.106;2023-02-12T08:45:33;8.40;49.90
12632;DHT22;6381;45.748;12.106;2023-02-12T08:48:03;8.30;49.90
12632;DHT22;6381;45.748;12.106;2023-02-12T08:50:34;8.40;49.80
12632;DHT22;6381;45.748;12.106;2023-02-12T08:53:05;8.40;50.10
12632;DHT22;6381;45.748;12.106;2023-02-12T08:55:35;8.60;49.90
12632;DHT22;6381;45.748;12.106;2023-02-12T08:58:04;8.80;50.00
12632;DHT22;6381;45.748;12.106;2023-02-12T09:00:34;8.80;49.20
12632;DHT22;6381;45.748;12.106;2023-02-12T09:03:06;8.90;48.70
12632;DHT22;6381;45.748;12.106;2023-02-12T09:05:39;9.00;48.30
12632;DHT22;6381;45.748;12.106;2023-02-12T09:08:09;9.30;47.90
12632;DHT22;6381;45.748;12.106;2023-02-12T09:14:01;9.30;47.60
12632;DHT22;6381;45.748;12.106;2023-02-12T09:16:34;9.50;47.40
12632;DHT22;6381;45.748;12.106;2023-02-12T09:19:04;9.30;46.70
12632;DHT22;6381;45.748;12.106;2023-02-12T09:21:35;9.60;47.10
12632;DHT22;6381;45.748;12.106;2023-02-12T09:24:04;9.80;46.70
12632;DHT22;6381;45.748;12.106;2023-02-12T09:26:34;10.00;45.50
12632;DHT22;6381;45.748;12.106;2023-02-12T09:29:03;10.00;44.60
12632;DHT22;6381;45.748;12.106;2023-02-12T09:31:33;9.80;45.90
12632;DHT22;6381;45.748;12.106;2023-02-12T09:34:04;9.90;46.60
12632;DHT22;6381;45.748;12.106;2023-02-12T09:36:37;9.90;47.20
12632;DHT22;6381;45.748;12.106;2023-02-12T09:39:07;10.00;47.50
12632;DHT22;6381;45.748;12.106;2023-02-12T09:42:07;10.20;47.60
12632;DHT22;6381;45.748;12.106;2023-02-12T09:44:45;10.30;47.20
12632;DHT22;6381;45.748;12.106;2023-02-12T09:47:22;10.30;47.70
12632;DHT22;6381;45.748;12.106;2023-02-12T09:50:06;10.50;47.80
12632;DHT22;6381;45.748;12.106;2023-02-12T09:52:42;10.60;46.90
12632;DHT22;6381;45.748;12.106;2023-02-12T09:55:14;11.00;47.20
12632;DHT22;6381;45.748;12.106;2023-02-12T09:57:44;11.00;47.10
12632;DHT22;6381;45.748;12.106;2023-02-12T10:00:21;11.10;46.70
12632;DHT22;6381;45.748;12.106;2023-02-12T10:02:53;11.20;45.80
12632;DHT22;6381;45.748;12.106;2023-02-12T10:05:26;11.00;45.70
12632;DHT22;6381;45.748;12.106;2023-02-12T10:08:30;11.20;45.90
12632;DHT22;6381;45.748;12.106;2023-02-12T10:11:12;11.40;47.60
12632;DHT22;6381;45.748;12.106;2023-02-12T10:13:49;11.60;46.10
12632;DHT22;6381;45.748;12.106;2023-02-12T10:16:33;11.60;44.80
12632;DHT22;6381;45.748;12.106;2023-02-12T10:19:14;11.90;44.30
12632;DHT22;6381;45.748;12.106;2023-02-12T10:21:56;12.00;45.10
12632;DHT22;6381;45.748;12.106;2023-02-12T10:24:41;12.00;44.30
12632;DHT22;6381;45.748;12.106;2023-02-12T10:27:16;12.00;44.40
12632;DHT22;6381;45.748;12.106;2023-02-12T10:29:48;12.20;44.20
12632;DHT22;6381;45.748;12.106;2023-02-12T10:32:24;12.40;44.20
12632;DHT22;6381;45.748;12.106;2023-02-12T10:34:56;12.40;43.60
12632;DHT22;6381;45.748;12.106;2023-02-12T10:37:30;12.40;43.10
12632;DHT22;6381;45.748;12.106;2023-02-12T10:40:13;12.60;42.20
12632;DHT22;6381;45.748;12.106;2023-02-12T10:42:45;12.70;42.50
12632;DHT22;6381;45.748;12.106;2023-02-12T10:45:17;12.70;41.60
12632;DHT22;6381;45.748;12.106;2023-02-12T10:47:50;13.00;41.20
12632;DHT22;6381;45.748;12.106;2023-02-12T10:50:30;13.20;41.00
12632;DHT22;6381;45.748;12.106;2023-02-12T10:53:07;13.20;40.30
12632;DHT22;6381;45.748;12.106;2023-02-12T10:55:41;13.50;40.30
12632;DHT22;6381;45.748;12.106;2023-02-12T10:58:19;13.70;40.30
12632;DHT22;6381;45.748;12.106;2023-02-12T11:00:56;14.20;41.10
12632;DHT22;6381;45.748;12.106;2023-02-12T11:03:29;14.20;40.70
12632;DHT22;6381;45.748;12.106;2023-02-12T11:06:12;14.20;38.30
12632;DHT22;6381;45.748;12.106;2023-02-12T11:08:42;14.30;38.50
12632;DHT22;6381;45.748;12.106;2023-02-12T11:11:15;14.60;37.50
12632;DHT22;6381;45.748;12.106;2023-02-12T11:13:53;14.70;37.70
12632;DHT22;6381;45.748;12.106;2023-02-12T11:16:31;14.70;37.60
12632;DHT22;6381;45.748;12.106;2023-02-12T11:19:02;14.80;37.80
12632;DHT22;6381;45.748;12.106;2023-02-12T11:21:33;14.80;38.70
12632;DHT22;6381;45.748;12.106;2023-02-12T11:24:25;14.90;36.50
12632;DHT22;6381;45.748;12.106;2023-02-12T11:27:24;14.90;35.70
12632;DHT22;6381;45.748;12.106;2023-02-12T11:30:16;15.30;35.10
12632;DHT22;6381;45.748;12.106;2023-02-12T11:32:46;15.40;35.80
12632;DHT22;6381;45.748;12.106;2023-02-12T11:35:20;15.50;35.40
12632;DHT22;6381;45.748;12.106;2023-02-12T11:37:55;15.50;34.90
12632;DHT22;6381;45.748;12.106;2023-02-12T11:40:27;15.80;34.40
12632;DHT22;6381;45.748;12.106;2023-02-12T11:43:01;16.00;33.50
12632;DHT22;6381;45.748;12.106;2023-02-12T11:45:35;16.00;34.50
12632;DHT22;6381;45.748;12.106;2023-02-12T11:48:12;16.20;33.60
12632;DHT22;6381;45.748;12.106;2023-02-12T11:50:47;16.10;31.70
12632;DHT22;6381;45.748;12.106;2023-02-12T11:53:21;16.10;32.40
12632;DHT22;6381;45.748;12.106;2023-02-12T11:55:56;16.20;32.00
12632;DHT22;6381;45.748;12.106;2023-02-12T11:58:29;16.40;31.60
12632;DHT22;6381;45.748;12.106;2023-02-12T12:01:04;16.60;31.90
12632;DHT22;6381;45.748;12.106;2023-02-12T12:03:40;16.60;31.90
12632;DHT22;6381;45.748;12.106;2023-02-12T12:06:22;16.90;31.30
12632;DHT22;6381;45.748;12.106;2023-02-12T12:08:56;17.00;30.50
12632;DHT22;6381;45.748;12.106;2023-02-12T12:11:36;17.20;30.90
12632;DHT22;6381;45.748;12.106;2023-02-12T12:14:15;17.50;30.20
12632;DHT22;6381;45.748;12.106;2023-02-12T12:16:52;17.70;29.20
12632;DHT22;6381;45.748;12.106;2023-02-12T12:19:48;17.60;28.50
12632;DHT22;6381;45.748;12.106;2023-02-12T12:22:34;18.00;28.90
12632;DHT22;6381;45.748;12.106;2023-02-12T12:25:10;18.70;28.30
12632;DHT22;6381;45.748;12.106;2023-02-12T12:27:48;18.40;28.20
12632;DHT22;6381;45.748;12.106;2023-02-12T12:30:56;18.20;28.10
12632;DHT22;6381;45.748;12.106;2023-02-12T12:33:32;17.90;27.30
12632;DHT22;6381;45.748;12.106;2023-02-12T12:36:24;17.80;27.50
12632;DHT22;6381;45.748;12.106;2023-02-12T12:39:04;18.10;27.70
12632;DHT22;6381;45.748;12.106;2023-02-12T12:41:43;17.80;27.40
12632;DHT22;6381;45.748;12.106;2023-02-12T12:44:25;17.80;27.60
12632;DHT22;6381;45.748;12.106;2023-02-12T12:47:17;17.90;27.40
12632;DHT22;6381;45.748;12.106;2023-02-12T12:49:54;18.60;27.50
12632;DHT22;6381;45.748;12.106;2023-02-12T12:52:56;19.30;26.90
12632;DHT22;6381;45.748;12.106;2023-02-12T12:58:43;19.90;26.50
12632;DHT22;6381;45.748;12.106;2023-02-12T13:01:28;19.70;25.40
12632;DHT22;6381;45.748;12.106;2023-02-12T13:07:18;19.30;24.60
12632;DHT22;6381;45.748;12.106;2023-02-12T13:10:10;19.60;23.90
12632;DHT22;6381;45.748;12.106;2023-02-12T13:15:40;19.80;23.20
12632;DHT22;6381;45.748;12.106;2023-02-12T13:18:19;19.70;22.10
12632;DHT22;6381;45.748;12.106;2023-02-12T13:20:58;19.40;23.00
12632;DHT22;6381;45.748;12.106;2023-02-12T13:23:37;18.70;22.30
12632;DHT22;6381;45.748;12.106;2023-02-12T13:26:15;19.60;23.30
12632;DHT22;6381;45.748;12.106;2023-02-12T13:28:49;19.10;22.50
12632;DHT22;6381;45.748;12.106;2023-02-12T13:31:22;18.80;22.20
12632;DHT22;6381;45.748;12.106;2023-02-12T13:34:03;18.80;22.60
12632;DHT22;6381;45.748;12.106;2023-02-12T13:36:37;18.60;23.10
12632;DHT22;6381;45.748;12.106;2023-02-12T13:39:14;17.40;21.90
12632;DHT22;6381;45.748;12.106;2023-02-12T13:41:51;19.00;22.40
12632;DHT22;6381;45.748;12.106;2023-02-12T13:44:28;18.20;22.90
12632;DHT22;6381;45.748;12.106;2023-02-12T13:47:07;18.70;22.80
12632;DHT22;6381;45.748;12.106;2023-02-12T13:49:44;19.10;22.90
12632;DHT22;6381;45.748;12.106;2023-02-12T13:52:27;18.50;22.40
12632;DHT22;6381;45.748;12.106;2023-02-12T13:55:15;19.10;22.30
12632;DHT22;6381;45.748;12.106;2023-02-12T14:00:59;19.70;21.70
12632;DHT22;6381;45.748;12.106;2023-02-12T14:03:30;18.10;22.40
12632;DHT22;6381;45.748;12.106;2023-02-12T14:06:14;17.80;22.80
12632;DHT22;6381;45.748;12.106;2023-02-12T14:08:48;18.00;23.30
12632;DHT22;6381;45.748;12.106;2023-02-12T14:11:23;17.20;24.00
12632;DHT22;6381;45.748;12.106;2023-02-12T14:13:55;17.00;24.40
12632;DHT22;6381;45.748;12.106;2023-02-12T14:16:39;16.90;25.10
12632;DHT22;6381;45.748;12.106;2023-02-12T14:19:37;17.00;25.00
12632;DHT22;6381;45.748;12.106;2023-02-12T14:22:13;17.80;24.60
12632;DHT22;6381;45.748;12.106;2023-02-12T14:24:53;18.10;24.40
12632;DHT22;6381;45.748;12.106;2023-02-12T14:27:35;18.20;24.00
12632;DHT22;6381;45.748;12.106;2023-02-12T14:30:24;17.40;25.20
12632;DHT22;6381;45.748;12.106;2023-02-12T14:33:08;18.60;24.70
12632;DHT22;6381;45.748;12.106;2023-02-12T14:35:39;18.20;24.60
12632;DHT22;6381;45.748;12.106;2023-02-12T14:41:35;18.50;24.20
12632;DHT22;6381;45.748;12.106;2023-02-12T14:44:45;18.80;24.20
12632;DHT22;6381;45.748;12.106;2023-02-12T14:47:50;18.60;24.10
12632;DHT22;6381;45.748;12.106;2023-02-12T14:50:30;18.00;24.40
12632;DHT22;6381;45.748;12.106;2023-02-12T14:55:56;18.30;24.80
12632;DHT22;6381;45.748;12.106;2023-02-12T14:58:31;17.40;25.00
12632;DHT22;6381;45.748;12.106;2023-02-12T15:01:02;16.90;25.90
12632;DHT22;6381;45.748;12.106;2023-02-12T15:03:39;18.00;25.50
12632;DHT22;6381;45.748;12.106;2023-02-12T15:06:13;17.80;25.30
12632;DHT22;6381;45.748;12.106;2023-02-12T15:08:48;17.70;25.70
12632;DHT22;6381;45.748;12.106;2023-02-12T15:11:35;18.40;25.10
12632;DHT22;6381;45.748;12.106;2023-02-12T15:14:14;19.10;25.10
12632;DHT22;6381;45.748;12.106;2023-02-12T15:16:51;18.30;25.30
12632;DHT22;6381;45.748;12.106;2023-02-12T15:19:40;17.70;25.40
12632;DHT22;6381;45.748;12.106;2023-02-12T15:22:18;16.50;27.20
12632;DHT22;6381;45.748;12.106;2023-02-12T15:24:49;17.10;27.20
12632;DHT22;6381;45.748;12.106;2023-02-12T15:27:21;16.90;27.70
12632;DHT22;6381;45.748;12.106;2023-02-12T15:29:52;16.30;28.40
12632;DHT22;6381;45.748;12.106;2023-02-12T15:32:24;16.00;28.70
12632;DHT22;6381;45.748;12.106;2023-02-12T15:34:55;15.90;29.20
12632;DHT22;6381;45.748;12.106;2023-02-12T15:37:27;15.80;29.30
12632;DHT22;6381;45.748;12.106;2023-02-12T15:39:59;15.70;29.70
12632;DHT22;6381;45.748;12.106;2023-02-12T15:42:32;16.40;29.60
12632;DHT22;6381;45.748;12.106;2023-02-12T15:45:24;16.20;29.80
12632;DHT22;6381;45.748;12.106;2023-02-12T15:48:02;16.20;30.60
12632;DHT22;6381;45.748;12.106;2023-02-12T15:50:33;15.90;30.80
12632;DHT22;6381;45.748;12.106;2023-02-12T15:53:04;15.70;32.00
12632;DHT22;6381;45.748;12.106;2023-02-12T15:55:36;16.30;31.90
12632;DHT22;6381;45.748;12.106;2023-02-12T15:58:18;16.10;32.20
12632;DHT22;6381;45.748;12.106;2023-02-12T16:00:51;16.40;32.30
12632;DHT22;6381;45.748;12.106;2023-02-12T16:03:23;15.50;32.80
12632;DHT22;6381;45.748;12.106;2023-02-12T16:05:56;14.70;34.10
12632;DHT22;6381;45.748;12.106;2023-02-12T16:08:30;13.60;35.90
12632;DHT22;6381;45.748;12.106;2023-02-12T16:11:01;13.40;37.20
12632;DHT22;6381;45.748;12.106;2023-02-12T16:13:43;13.10;38.10
12632;DHT22;6381;45.748;12.106;2023-02-12T16:16:23;12.90;38.70
12632;DHT22;6381;45.748;12.106;2023-02-12T16:19:14;12.90;39.30
12632;DHT22;6381;45.748;12.106;2023-02-12T16:21:47;12.60;39.70
12632;DHT22;6381;45.748;12.106;2023-02-12T16:24:25;12.60;40.00
12632;DHT22;6381;45.748;12.106;2023-02-12T16:26:59;12.70;39.60
12632;DHT22;6381;45.748;12.106;2023-02-12T16:29:36;12.60;40.40
12632;DHT22;6381;45.748;12.106;2023-02-12T16:32:27;12.30;44.50
12632;DHT22;6381;45.748;12.106;2023-02-12T16:37:48;12.20;41.80
12632;DHT22;6381;45.748;12.106;2023-02-12T16:40:33;12.00;42.60
12632;DHT22;6381;45.748;12.106;2023-02-12T16:45:59;12.00;43.00
12632;DHT22;6381;45.748;12.106;2023-02-12T16:48:37;11.90;43.50
12632;DHT22;6381;45.748;12.106;2023-02-12T16:51:20;11.80;43.80
12632;DHT22;6381;45.748;12.106;2023-02-12T16:53:50;11.80;44.00
12632;DHT22;6381;45.748;12.106;2023-02-12T16:56:21;11.80;44.20
12632;DHT22;6381;45.748;12.106;2023-02-12T16:58:53;11.60;44.30
12632;DHT22;6381;45.748;12.106;2023-02-12T17:01:24;11.70;44.50